Time;durP1;ratioP1;P1;durP2;ratioP2;P2;SDS_P1;SDS_P2;PMS_P1;PMS_P2;Temp;Humidity;BMP_temperature;BMP_pressure;BME280_temperature;BME280_humidity;BME280_pressure;Samples;Min_cycle;Max_cycle;Signal;HPM_P1;HPM_P2
2022/12/09 00:00:26;;;;;;;10.18;8.93;;;-0.20;99.90;;;;;;6092255;23;20257;-79
2022/12/09 00:02:53;;;;;;;11.43;9.90;;;-0.10;99.90;;;;;;6112687;23;20223;-80
2022/12/09 00:05:21;;;;;;;11.18;9.80;;;-0.20;99.90;;;;;;6099484;23;20544;-80
2022/12/09 00:07:48;;;;;;;11.20;9.82;;;-0.20;99.90;;;;;;6101272;23;20274;-80
2022/12/09 00:10:16;;;;;;;11.93;10.68;;;-0.30;99.90;;;;;;6107386;23;20216;-80
2022/12/09 00:12:43;;;;;;;10.60;9.50;;;-0.30;99.90;;;;;;6109633;23;20215;-81
2022/12/09 00:15:12;;;;;;;10.77;9.48;;;-0.30;99.90;;;;;;6095092;23;20210;-80
2022/12/09 00:17:39;;;;;;;14.05;10.63;;;-0.40;99.90;;;;;;6091725;23;20191;-80
2022/12/09 00:20:07;;;;;;;10.35;9.10;;;-0.40;99.90;;;;;;6100396;23;20200;-79
2022/12/09 00:22:34;;;;;;;11.52;10.15;;;-0.50;99.90;;;;;;6110143;23;20195;-80
2022/12/09 00:25:01;;;;;;;10.85;9.75;;;-0.50;99.90;;;;;;6112808;23;20290;-80
2022/12/09 00:27:28;;;;;;;11.25;9.85;;;-0.50;99.90;;;;;;6107282;23;20299;-80
2022/12/09 00:29:55;;;;;;;16.05;11.80;;;-0.50;99.90;;;;;;6111126;23;20234;-80
2022/12/09 00:32:24;;;;;;;11.48;10.27;;;-0.50;99.90;;;;;;6101277;23;20274;-80
2022/12/09 00:34:51;;;;;;;12.70;10.40;;;-0.50;99.90;;;;;;6073442;23;20196;-80
2022/12/09 00:37:21;;;;;;;11.63;10.43;;;-0.50;99.90;;;;;;6107311;23;20206;-80
2022/12/09 00:39:49;;;;;;;12.27;10.70;;;-0.60;99.90;;;;;;6114889;23;20239;-80
2022/12/09 00:42:16;;;;;;;11.43;10.25;;;-0.60;99.90;;;;;;6077317;23;20195;-80
2022/12/09 00:44:43;;;;;;;13.35;10.70;;;-0.60;99.90;;;;;;6116223;23;20256;-80
2022/12/09 00:47:12;;;;;;;11.48;10.27;;;-0.70;99.90;;;;;;6116300;23;20279;-80
2022/12/09 00:49:41;;;;;;;14.50;11.23;;;-0.70;99.90;;;;;;6103414;23;20196;-80
2022/12/09 00:52:08;;;;;;;12.23;10.93;;;-0.70;99.90;;;;;;6117149;23;20217;-80
2022/12/09 00:54:35;;;;;;;14.00;11.25;;;-0.70;99.90;;;;;;6114127;23;20282;-80
2022/12/09 00:57:03;;;;;;;10.18;9.18;;;-0.70;99.90;;;;;;6086133;23;20266;-80
2022/12/09 00:59:30;;;;;;;12.52;11.23;;;-0.70;99.90;;;;;;6106885;23;20206;-80
2022/12/09 01:01:57;;;;;;;13.23;9.30;;;-0.70;99.90;;;;;;6104708;23;20269;-80
2022/12/09 01:04:24;;;;;;;10.68;9.57;;;-0.70;99.90;;;;;;6112194;23;20243;-80
2022/12/09 01:06:53;;;;;;;9.65;8.65;;;-0.70;99.90;;;;;;6116660;23;20207;-80
2022/12/09 01:09:20;;;;;;;10.80;9.70;;;-0.70;99.90;;;;;;6116276;23;20230;-80
2022/12/09 01:11:48;;;;;;;10.27;9.20;;;-0.70;99.90;;;;;;6074592;23;20295;-80
2022/12/09 01:14:15;;;;;;;11.02;9.90;;;-0.70;99.90;;;;;;6111203;23;20203;-80
2022/12/09 01:16:42;;;;;;;11.30;9.23;;;-0.70;99.90;;;;;;6110299;23;20227;-80
2022/12/09 01:19:13;;;;;;;10.05;9.05;;;-0.80;99.90;;;;;;6083579;23;20288;-80
2022/12/09 01:21:41;;;;;;;10.93;9.82;;;-0.80;99.90;;;;;;6089957;23;20592;-79
2022/12/09 01:24:11;;;;;;;10.38;9.30;;;-0.70;99.90;;;;;;6114706;23;20732;-79
2022/12/09 01:26:38;;;;;;;9.95;8.93;;;-0.70;99.90;;;;;;6110411;23;20223;-81
2022/12/09 01:29:06;;;;;;;9.35;8.40;;;-0.80;99.90;;;;;;6127103;23;20281;-80
2022/12/09 01:31:33;;;;;;;9.88;8.23;;;-0.80;99.90;;;;;;6115069;23;20676;-80
2022/12/09 01:34:00;;;;;;;10.48;9.10;;;-0.70;99.90;;;;;;6115999;23;20291;-80
2022/12/09 01:36:30;;;;;;;10.75;9.65;;;-0.80;99.90;;;;;;6116319;23;21024;-80
2022/12/09 01:38:59;;;;;;;12.65;9.60;;;-0.80;99.90;;;;;;6095752;23;20196;-79
2022/12/09 01:41:27;;;;;;;12.27;9.80;;;-0.80;99.90;;;;;;6098518;23;20211;-80
2022/12/09 01:44:18;;;;;;;11.27;10.07;;;-0.90;99.90;;;;;;6116473;23;20501;-79
2022/12/09 01:46:46;;;;;;;11.20;10.10;;;-0.90;99.90;;;;;;6108558;23;20282;-80
2022/12/09 01:49:19;;;;;;;11.45;10.10;;;-0.90;99.90;;;;;;6101960;23;20281;-80
2022/12/09 01:51:55;;;;;;;11.90;10.70;;;-0.90;99.90;;;;;;6114305;23;20677;-80
2022/12/09 01:54:27;;;;;;;11.20;10.10;;;-0.90;99.90;;;;;;6108927;23;20712;-79
2022/12/09 01:56:56;;;;;;;11.63;10.52;;;-0.90;99.90;;;;;;6114054;23;20203;-80
2022/12/09 01:59:25;;;;;;;10.75;9.65;;;-0.90;99.90;;;;;;6118507;23;20246;-80
2022/12/09 02:01:57;;;;;;;10.25;9.15;;;-0.90;99.90;;;;;;6086006;23;20262;-80
2022/12/09 02:04:26;;;;;;;10.23;9.23;;;-0.90;99.90;;;;;;6095702;23;20192;-80
2022/12/09 02:06:53;;;;;;;11.60;10.13;;;-0.90;99.90;;;;;;6115742;23;20692;-80
2022/12/09 02:09:20;;;;;;;14.20;10.63;;;-0.90;99.90;;;;;;6117159;23;20278;-80
2022/12/09 02:12:02;;;;;;;10.30;9.23;;;-0.90;99.90;;;;;;6117603;23;20270;-80
2022/12/09 02:14:36;;;;;;;11.55;9.77;;;-0.80;99.90;;;;;;6114803;23;20210;-80
2022/12/09 02:17:17;;;;;;;14.07;9.90;;;-0.90;99.90;;;;;;6103507;23;20731;-80
2022/12/09 02:20:00;;;;;;;11.10;10.02;;;-0.90;99.90;;;;;;6085078;23;20544;-80
2022/12/09 02:22:33;;;;;;;11.23;10.13;;;-0.90;99.90;;;;;;6115044;23;20199;-80
2022/12/09 02:25:10;;;;;;;11.20;10.02;;;-0.90;99.90;;;;;;6091444;23;20184;-80
2022/12/09 02:27:47;;;;;;;12.18;10.88;;;-0.90;99.90;;;;;;6117968;23;20191;-79
2022/12/09 02:30:18;;;;;;;10.90;9.73;;;-1.00;99.90;;;;;;6113228;23;20556;-79
2022/12/09 02:33:21;;;;;;;10.52;9.30;;;-1.00;99.90;;;;;;6118059;23;20221;-79
2022/12/09 02:35:54;;;;;;;10.60;9.32;;;-0.90;99.90;;;;;;6089819;23;20188;-79
2022/12/09 02:38:26;;;;;;;12.68;11.38;;;-1.00;99.90;;;;;;6110557;23;20691;-80
2022/12/09 02:40:56;;;;;;;12.18;10.60;;;-1.00;99.90;;;;;;6086480;23;20401;-80
2022/12/09 02:43:28;;;;;;;13.80;12.45;;;-0.90;99.90;;;;;;6102676;23;20267;-79
2022/12/09 02:45:57;;;;;;;13.27;11.93;;;-1.00;99.90;;;;;;6069515;23;20192;-79
2022/12/09 02:48:29;;;;;;;11.90;10.70;;;-0.90;99.90;;;;;;6115444;23;20286;-80
2022/12/09 02:51:00;;;;;;;12.40;11.23;;;-0.90;99.90;;;;;;6089522;23;20266;-80
2022/12/09 02:53:29;;;;;;;11.40;10.30;;;-0.90;99.90;;;;;;6089651;23;20238;-79
2022/12/09 02:55:57;;;;;;;11.65;10.43;;;-1.00;99.90;;;;;;6095158;23;20258;-80
2022/12/09 02:58:25;;;;;;;12.60;11.30;;;-1.20;99.90;;;;;;6088706;23;20290;-79
2022/12/09 03:00:56;;;;;;;12.02;10.80;;;-1.30;99.90;;;;;;6110078;23;20199;-79
2022/12/09 03:03:24;;;;;;;12.80;11.50;;;-1.30;99.90;;;;;;6107493;23;20220;-80
2022/12/09 03:06:00;;;;;;;13.63;12.13;;;-1.40;99.90;;;;;;6102637;23;20266;-80
2022/12/09 03:08:34;;;;;;;13.68;12.38;;;-1.50;99.90;;;;;;6115308;23;20229;-80
2022/12/09 03:11:06;;;;;;;15.20;11.93;;;-1.50;99.90;;;;;;6087691;23;20188;-80
2022/12/09 03:13:45;;;;;;;12.63;11.32;;;-1.60;99.90;;;;;;6115311;23;20214;-80
2022/12/09 03:16:20;;;;;;;12.77;11.40;;;-1.60;99.90;;;;;;6109544;23;20188;-80
2022/12/09 03:18:54;;;;;;;13.30;12.00;;;-1.70;99.90;;;;;;6117805;23;20288;-80
2022/12/09 03:21:28;;;;;;;12.70;11.23;;;-1.70;99.90;;;;;;6109224;23;20206;-80
2022/12/09 03:23:56;;;;;;;12.65;11.32;;;-1.70;99.90;;;;;;6116437;23;20187;-80
2022/12/09 03:26:27;;;;;;;12.82;11.48;;;-1.70;99.90;;;;;;6087804;23;20270;-80
2022/12/09 03:28:56;;;;;;;12.32;11.23;;;-1.60;99.90;;;;;;6089099;23;20202;-80
2022/12/09 03:31:27;;;;;;;12.77;11.50;;;-1.60;99.90;;;;;;6090159;23;20643;-80
2022/12/09 03:33:58;;;;;;;14.68;13.27;;;-1.60;99.90;;;;;;6074563;23;20215;-80
2022/12/09 03:36:32;;;;;;;13.40;12.02;;;-1.60;99.90;;;;;;6116550;23;20625;-80
2022/12/09 03:39:01;;;;;;;13.00;11.75;;;-1.60;99.90;;;;;;6114348;23;20204;-80
2022/12/09 03:41:30;;;;;;;14.20;12.40;;;-1.50;99.90;;;;;;6114034;23;20256;-80
2022/12/09 03:44:03;;;;;;;14.95;13.05;;;-1.50;99.90;;;;;;6093444;23;20246;-80
2022/12/09 03:46:31;;;;;;;12.88;11.30;;;-1.50;99.90;;;;;;6090573;23;20214;-80
2022/12/09 03:48:58;;;;;;;11.57;10.48;;;-1.40;99.90;;;;;;6118553;23;20191;-80
2022/12/09 03:51:35;;;;;;;13.05;11.57;;;-1.50;99.90;;;;;;6114544;23;20274;-80
2022/12/09 03:54:08;;;;;;;13.93;11.70;;;-1.50;99.90;;;;;;6097210;23;20544;-80
2022/12/09 03:56:39;;;;;;;13.05;11.15;;;-1.50;99.90;;;;;;6120488;23;20733;-80
2022/12/09 03:59:11;;;;;;;18.55;15.35;;;-1.50;99.90;;;;;;6118211;23;20202;-81
2022/12/09 04:01:39;;;;;;;15.90;13.25;;;-1.60;99.90;;;;;;6117981;23;20218;-80
2022/12/09 04:04:08;;;;;;;12.55;11.25;;;-1.60;99.90;;;;;;6113370;23;20191;-80
2022/12/09 04:06:39;;;;;;;12.88;11.55;;;-1.70;99.90;;;;;;6098150;23;20216;-81
2022/12/09 04:09:06;;;;;;;16.40;12.23;;;-1.60;99.90;;;;;;6114806;23;20224;-80
2022/12/09 04:11:33;;;;;;;16.65;12.88;;;-1.60;99.90;;;;;;6113294;23;20316;-80
2022/12/09 04:14:04;;;;;;;18.08;12.80;;;-1.50;99.90;;;;;;6102135;23;20291;-81
2022/12/09 04:16:31;;;;;;;16.20;12.20;;;-1.50;99.90;;;;;;6090473;23;20671;-80
2022/12/09 04:18:59;;;;;;;34.83;23.10;;;-1.50;99.90;;;;;;6118824;23;20226;-80
2022/12/09 04:21:26;;;;;;;27.98;17.73;;;-1.50;99.90;;;;;;6111989;23;20211;-80
2022/12/09 04:23:55;;;;;;;14.07;11.45;;;-1.60;99.90;;;;;;6117450;23;20567;-80
2022/12/09 04:26:23;;;;;;;12.85;11.20;;;-1.50;99.90;;;;;;6087805;23;20230;-81
2022/12/09 04:28:51;;;;;;;12.93;11.30;;;-1.50;99.90;;;;;;6107249;23;20253;-80
2022/12/09 04:31:20;;;;;;;12.73;10.60;;;-1.60;99.90;;;;;;6106925;23;20204;-80
2022/12/09 04:33:47;;;;;;;10.77;9.13;;;-1.60;99.90;;;;;;6117428;23;20295;-80
2022/12/09 04:36:17;;;;;;;12.40;10.68;;;-1.70;99.90;;;;;;6113425;23;20755;-80
2022/12/09 04:38:45;;;;;;;12.05;10.80;;;-1.70;99.90;;;;;;6117601;23;20650;-80
2022/12/09 04:41:15;;;;;;;11.52;10.30;;;-1.80;99.90;;;;;;6113391;23;20323;-80
2022/12/09 04:43:42;;;;;;;13.63;10.48;;;-1.80;99.90;;;;;;6102000;23;20683;-80
2022/12/09 04:46:12;;;;;;;12.80;11.27;;;-1.70;99.90;;;;;;6104045;23;20282;-80
2022/12/09 04:48:40;;;;;;;14.43;10.88;;;-1.70;99.90;;;;;;6077893;23;20199;-80
2022/12/09 04:51:09;;;;;;;13.73;12.30;;;-1.70;99.90;;;;;;6091315;23;20325;-80
2022/12/09 04:53:36;;;;;;;12.90;10.80;;;-1.70;99.90;;;;;;6096371;23;20229;-80
2022/12/09 04:56:06;;;;;;;11.95;10.77;;;-1.60;99.90;;;;;;6105012;23;20187;-80
2022/12/09 04:58:35;;;;;;;11.10;10.00;;;-1.60;99.90;;;;;;6088898;23;20203;-80
2022/12/09 05:01:06;;;;;;;11.38;9.40;;;-1.50;99.90;;;;;;6111418;23;20249;-80
2022/12/09 05:03:33;;;;;;;10.65;9.55;;;-1.40;99.90;;;;;;6114872;23;20319;-80
2022/12/09 05:06:02;;;;;;;14.57;10.38;;;-1.40;99.90;;;;;;6077287;23;20215;-80
2022/12/09 05:08:29;;;;;;;10.45;9.35;;;-1.40;99.90;;;;;;6103846;23;20195;-81
2022/12/09 05:10:57;;;;;;;11.35;9.63;;;-1.40;99.90;;;;;;6109309;23;20661;-81
2022/12/09 05:13:25;;;;;;;10.48;9.40;;;-1.40;99.90;;;;;;6117818;23;20291;-81
2022/12/09 05:15:54;;;;;;;10.07;9.13;;;-1.40;99.90;;;;;;6104848;23;20196;-79
2022/12/09 05:18:21;;;;;;;14.25;11.05;;;-1.30;99.90;;;;;;6100287;23;20761;-81
2022/12/09 05:20:50;;;;;;;11.30;9.80;;;-1.30;99.90;;;;;;6088701;23;20673;-81
2022/12/09 05:23:17;;;;;;;11.45;10.25;;;-1.30;99.90;;;;;;6103832;23;20193;-81
2022/12/09 05:25:44;;;;;;;13.13;11.85;;;-1.30;99.90;;;;;;6106184;23;20192;-82
2022/12/09 05:28:11;;;;;;;14.15;11.60;;;-1.30;99.90;;;;;;6111778;23;20195;-81
2022/12/09 05:30:39;;;;;;;11.63;10.32;;;-1.20;99.90;;;;;;6109624;23;20199;-81
2022/12/09 05:33:07;;;;;;;11.65;9.90;;;-1.20;99.90;;;;;;6083722;23;20298;-81
2022/12/09 05:35:36;;;;;;;11.63;10.43;;;-1.20;99.90;;;;;;6113126;23;20584;-81
2022/12/09 05:38:03;;;;;;;11.90;10.65;;;-1.20;99.90;;;;;;6082796;23;20191;-81
2022/12/09 05:40:32;;;;;;;11.35;10.25;;;-1.20;99.90;;;;;;6112233;23;20281;-81
2022/12/09 05:42:59;;;;;;;11.93;10.65;;;-1.20;99.90;;;;;;6111238;23;20277;-81
2022/12/09 05:45:26;;;;;;;13.10;10.77;;;-1.30;99.90;;;;;;6113037;23;20265;-81
2022/12/09 05:47:54;;;;;;;12.05;10.73;;;-1.20;99.90;;;;;;6097982;23;20226;-81
2022/12/09 05:50:22;;;;;;;11.23;9.63;;;-1.30;99.90;;;;;;6088534;23;20273;-81
2022/12/09 05:52:49;;;;;;;11.32;10.13;;;-1.40;99.90;;;;;;6110367;23;20278;-81
2022/12/09 05:55:17;;;;;;;12.50;10.90;;;-1.40;99.90;;;;;;6112587;23;20534;-81
2022/12/09 05:57:45;;;;;;;11.75;10.55;;;-1.40;99.90;;;;;;6109352;23;20218;-81
2022/12/09 06:00:13;;;;;;;12.20;10.30;;;-1.40;99.90;;;;;;6113220;23;20829;-81
2022/12/09 06:02:41;;;;;;;12.20;10.70;;;-1.40;99.90;;;;;;6107449;23;20222;-83
2022/12/09 06:05:09;;;;;;;12.70;11.40;;;-1.30;99.90;;;;;;6109657;23;20213;-82
2022/12/09 06:07:38;;;;;;;13.55;11.98;;;-1.30;99.90;;;;;;6094526;23;20677;-81
2022/12/09 06:10:07;;;;;;;12.43;11.23;;;-1.30;99.90;;;;;;6104898;23;20187;-81
2022/12/09 06:12:34;;;;;;;12.10;10.82;;;-1.20;99.90;;;;;;6113069;23;20188;-81
2022/12/09 06:15:00;;;;;;;12.32;11.02;;;-1.30;99.90;;;;;;6100570;23;20618;-81
2022/12/09 06:17:28;;;;;;;12.88;11.45;;;-1.20;99.90;;;;;;6103254;23;20530;-81
2022/12/09 06:19:56;;;;;;;14.45;11.05;;;-1.20;99.90;;;;;;6086902;23;20187;-81
2022/12/09 06:22:23;;;;;;;11.35;10.15;;;-1.20;99.90;;;;;;6101877;23;20195;-81
2022/12/09 06:24:55;;;;;;;10.98;9.85;;;-1.20;99.90;;;;;;6099848;23;20230;-81
2022/12/09 06:27:23;;;;;;;14.93;10.90;;;-1.20;99.90;;;;;;6097561;23;20223;-81
2022/12/09 06:29:50;;;;;;;10.38;9.18;;;-1.10;99.90;;;;;;6099822;23;20251;-81
2022/12/09 06:32:20;;;;;;;11.63;10.43;;;-1.10;99.90;;;;;;6100790;23;20195;-81
2022/12/09 06:34:47;;;;;;;11.63;10.40;;;-1.00;99.90;;;;;;6109395;23;20287;-81
2022/12/09 06:37:18;;;;;;;10.82;9.80;;;-1.00;99.90;;;;;;6100099;23;20194;-81
2022/12/09 06:39:47;;;;;;;12.45;11.25;;;-1.00;99.90;;;;;;6116674;23;20237;-81
2022/12/09 06:42:16;;;;;;;11.98;10.65;;;-1.00;99.90;;;;;;6111876;23;20210;-81
2022/12/09 06:44:44;;;;;;;10.88;9.77;;;-1.00;99.90;;;;;;6106194;23;20187;-81
2022/12/09 06:47:11;;;;;;;11.10;9.65;;;-0.90;99.90;;;;;;6110220;23;20288;-81
2022/12/09 06:49:38;;;;;;;12.05;10.57;;;-0.90;99.90;;;;;;6104716;23;20267;-81
2022/12/09 06:52:06;;;;;;;12.15;10.95;;;-0.80;99.90;;;;;;6112389;23;20184;-81
2022/12/09 06:54:34;;;;;;;11.50;10.30;;;-0.90;99.90;;;;;;6108679;23;20294;-81
2022/12/09 06:57:01;;;;;;;10.65;9.63;;;-0.90;99.90;;;;;;6107426;23;20211;-81
2022/12/09 06:59:31;;;;;;;10.88;9.88;;;-0.90;99.90;;;;;;6109130;23;20275;-81
2022/12/09 07:01:59;;;;;;;11.23;10.13;;;-0.90;99.90;;;;;;6115520;23;20289;-81
2022/12/09 07:04:26;;;;;;;13.60;10.65;;;-0.80;99.90;;;;;;6102535;23;20602;-81
2022/12/09 07:06:53;;;;;;;13.45;11.13;;;-0.80;99.90;;;;;;6099617;23;20214;-81
2022/12/09 07:09:22;;;;;;;12.60;11.30;;;-0.80;99.90;;;;;;6089114;23;20195;-81
2022/12/09 07:11:50;;;;;;;12.45;11.15;;;-0.70;99.90;;;;;;6071784;23;20191;-81
2022/12/09 07:14:18;;;;;;;15.48;11.18;;;-0.70;99.90;;;;;;6100229;23;20291;-81
2022/12/09 07:16:47;;;;;;;11.82;10.63;;;-0.60;99.90;;;;;;6099223;23;20248;-81
2022/12/09 07:19:16;;;;;;;12.30;10.73;;;-0.60;99.90;;;;;;6102731;23;20267;-81
2022/12/09 07:21:44;;;;;;;11.85;10.65;;;-0.50;99.90;;;;;;6112818;23;21467;-81
2022/12/09 07:24:13;;;;;;;13.20;11.80;;;-0.50;99.90;;;;;;6119270;23;20237;-81
2022/12/09 07:26:40;;;;;;;11.50;10.20;;;-0.50;99.90;;;;;;6108616;23;20253;-81
2022/12/09 07:29:09;;;;;;;11.98;10.60;;;-0.40;99.90;;;;;;6102610;23;20192;-81
2022/12/09 07:31:38;;;;;;;12.00;10.60;;;-0.30;99.90;;;;;;6092525;23;20728;-81
2022/12/09 07:34:06;;;;;;;14.88;13.05;;;-0.30;99.90;;;;;;6112440;23;20290;-81
2022/12/09 07:36:36;;;;;;;16.17;12.80;;;-0.20;99.90;;;;;;6111405;23;20187;-81
2022/12/09 07:39:05;;;;;;;15.25;12.88;;;-0.20;99.90;;;;;;6101388;23;20188;-81
2022/12/09 07:41:33;;;;;;;14.25;12.02;;;-0.20;99.90;;;;;;6114099;23;20279;-81
2022/12/09 07:44:00;;;;;;;13.25;11.48;;;-0.10;99.90;;;;;;6111576;23;20291;-81
2022/12/09 07:46:28;;;;;;;13.80;12.30;;;-0.10;99.90;;;;;;6107154;23;20309;-82
2022/12/09 07:48:56;;;;;;;15.23;12.63;;;0.00;99.90;;;;;;6111796;23;20188;-81
2022/12/09 07:51:25;;;;;;;15.77;14.00;;;0.00;99.90;;;;;;6113821;23;20198;-81
2022/12/09 07:53:53;;;;;;;19.60;15.88;;;0.10;99.90;;;;;;6116779;23;20191;-82
2022/12/09 07:56:20;;;;;;;15.52;13.23;;;0.20;99.90;;;;;;6117674;23;20479;-81
2022/12/09 07:58:50;;;;;;;15.38;13.07;;;0.30;99.90;;;;;;6102129;23;20193;-81
2022/12/09 08:01:19;;;;;;;19.88;14.85;;;0.40;99.90;;;;;;6102200;23;20269;-82
2022/12/09 08:03:48;;;;;;;18.75;15.20;;;0.50;99.90;;;;;;6095963;23;20227;-81
2022/12/09 08:06:18;;;;;;;15.80;14.00;;;0.60;99.90;;;;;;6114337;23;20525;-82
2022/12/09 08:08:47;;;;;;;14.95;12.82;;;0.70;99.90;;;;;;6113820;23;20218;-81
2022/12/09 08:11:16;;;;;;;15.13;12.93;;;0.80;99.90;;;;;;6099776;23;20591;-82
2022/12/09 08:13:43;;;;;;;15.80;13.77;;;0.80;99.90;;;;;;6113772;23;20249;-82
2022/12/09 08:16:12;;;;;;;16.45;13.00;;;0.90;99.90;;;;;;6112573;23;20695;-82
2022/12/09 08:18:40;;;;;;;16.70;14.85;;;0.90;99.90;;;;;;6110175;23;20186;-82
2022/12/09 08:21:10;;;;;;;15.73;14.15;;;1.00;99.90;;;;;;6111127;23;20189;-82
2022/12/09 08:23:38;;;;;;;12.50;11.20;;;1.00;99.90;;;;;;6116389;23;20211;-82
2022/12/09 08:26:08;;;;;;;13.52;11.73;;;1.10;99.90;;;;;;6113448;23;20188;-82
2022/12/09 08:28:36;;;;;;;13.77;12.43;;;1.10;99.90;;;;;;6084567;23;20189;-82
2022/12/09 08:31:07;;;;;;;13.65;12.25;;;1.20;99.90;;;;;;6109660;23;20185;-82
2022/12/09 08:33:34;;;;;;;15.32;11.00;;;1.30;99.90;;;;;;6103153;23;20217;-82
2022/12/09 08:36:01;;;;;;;13.05;10.80;;;1.30;99.90;;;;;;6086403;23;20205;-82
2022/12/09 08:38:32;;;;;;;10.95;9.85;;;1.40;99.90;;;;;;6109109;23;20237;-81
2022/12/09 08:41:07;;;;;;;11.30;10.10;;;1.50;99.90;;;;;;6116767;23;20653;-82
2022/12/09 08:43:36;;;;;;;14.15;10.57;;;1.60;99.90;;;;;;6110562;23;20198;-82
2022/12/09 08:46:03;;;;;;;11.75;10.52;;;1.70;99.90;;;;;;6108174;23;20263;-82
2022/12/09 08:48:30;;;;;;;10.85;9.73;;;1.80;99.90;;;;;;6115378;23;20328;-82
2022/12/09 08:50:57;;;;;;;10.88;9.80;;;1.90;99.90;;;;;;6116130;23;20192;-82
2022/12/09 08:53:24;;;;;;;12.25;11.05;;;1.90;99.90;;;;;;6089725;23;20554;-82
2022/12/09 08:55:52;;;;;;;10.90;9.80;;;2.00;99.90;;;;;;6103571;23;20217;-82
2022/12/09 08:58:19;;;;;;;13.38;10.00;;;2.00;99.90;;;;;;6074959;23;20224;-82
2022/12/09 09:00:50;;;;;;;12.40;10.30;;;2.00;99.90;;;;;;6114989;23;20193;-82
2022/12/09 09:03:17;;;;;;;10.70;9.70;;;2.00;99.90;;;;;;6073236;23;20203;-83
2022/12/09 09:05:45;;;;;;;10.45;9.45;;;2.10;99.90;;;;;;6110653;23;20182;-82
2022/12/09 09:08:12;;;;;;;11.82;10.68;;;2.10;99.90;;;;;;6115785;23;20277;-82
2022/12/09 09:10:39;;;;;;;10.70;9.38;;;2.10;99.90;;;;;;6115024;23;20508;-82
2022/12/09 09:13:06;;;;;;;11.30;10.20;;;2.10;99.90;;;;;;6116022;23;20649;-82
2022/12/09 09:15:33;;;;;;;13.07;11.68;;;2.10;99.90;;;;;;6099838;23;20213;-82
2022/12/09 09:18:02;;;;;;;16.23;13.57;;;2.10;99.90;;;;;;6103794;23;20201;-82
2022/12/09 09:20:29;;;;;;;17.98;15.43;;;2.00;99.90;;;;;;6110773;23;20644;-82
2022/12/09 09:22:57;;;;;;;17.75;15.88;;;2.00;99.90;;;;;;6107479;23;20255;-82
2022/12/09 09:25:24;;;;;;;15.00;12.65;;;2.00;99.90;;;;;;6108484;23;20199;-82
2022/12/09 09:27:51;;;;;;;18.17;13.88;;;2.00;99.90;;;;;;6107231;23;20190;-82
2022/12/09 09:30:18;;;;;;;13.10;11.40;;;2.00;99.90;;;;;;6108299;23;20195;-82
2022/12/09 09:32:46;;;;;;;11.65;10.55;;;2.00;99.90;;;;;;6112772;23;20189;-82
2022/12/09 09:35:15;;;;;;;13.63;11.10;;;2.00;99.90;;;;;;6089387;23;20273;-81
2022/12/09 09:37:43;;;;;;;13.70;12.15;;;2.00;99.90;;;;;;6115822;23;20223;-82
2022/12/09 09:40:12;;;;;;;17.15;14.05;;;2.10;99.90;;;;;;6110074;23;20189;-81
2022/12/09 09:42:47;;;;;;;12.40;10.80;;;2.10;99.90;;;;;;6114530;23;20227;-81
2022/12/09 09:45:18;;;;;;;12.30;11.05;;;2.10;99.90;;;;;;6107820;23;20200;-81
2022/12/09 09:47:51;;;;;;;13.70;12.30;;;2.10;99.90;;;;;;6110340;23;20710;-82
2022/12/09 09:50:28;;;;;;;11.52;10.32;;;2.10;99.90;;;;;;6085178;23;20196;-82
2022/12/09 09:52:56;;;;;;;12.57;11.20;;;2.10;99.90;;;;;;6107386;23;20189;-82
2022/12/09 09:55:33;;;;;;;12.63;11.27;;;2.10;99.90;;;;;;6107800;23;20234;-82
2022/12/09 09:58:10;;;;;;;13.43;10.82;;;2.10;99.90;;;;;;6109303;23;20642;-82
2022/12/09 10:00:43;;;;;;;18.98;17.27;;;2.10;99.90;;;;;;6109434;23;20638;-82
2022/12/09 10:03:17;;;;;;;21.30;19.25;;;2.10;99.90;;;;;;6110047;23;20184;-82
2022/12/09 10:05:52;;;;;;;19.00;17.02;;;2.10;99.90;;;;;;6101403;23;20223;-82
2022/12/09 10:08:35;;;;;;;18.67;14.23;;;2.10;99.90;;;;;;6108570;23;20200;-82
2022/12/09 10:11:12;;;;;;;13.23;11.93;;;2.10;99.90;;;;;;6108143;23;20195;-82
2022/12/09 10:13:46;;;;;;;12.73;11.45;;;2.20;99.90;;;;;;6105733;23;20695;-81
2022/12/09 10:16:17;;;;;;;13.93;12.48;;;2.20;99.90;;;;;;6091485;23;20289;-82
2022/12/09 10:19:00;;;;;;;13.73;11.75;;;2.20;99.90;;;;;;6112235;23;20268;-81
2022/12/09 10:21:31;;;;;;;13.60;12.23;;;2.30;99.90;;;;;;6108172;23;20195;-81
2022/12/09 10:24:14;;;;;;;16.52;14.82;;;2.30;99.90;;;;;;6115127;23;20189;-81
2022/12/09 10:26:43;;;;;;;19.38;15.35;;;2.40;99.90;;;;;;6104672;23;20188;-82
2022/12/09 10:29:16;;;;;;;18.75;15.88;;;2.40;99.90;;;;;;6105385;23;20186;-81
2022/12/09 10:31:45;;;;;;;15.93;13.77;;;2.50;99.90;;;;;;6115564;23;20190;-82
2022/12/09 10:34:13;;;;;;;14.90;13.45;;;2.70;99.90;;;;;;6104407;23;20278;-81
2022/12/09 10:36:45;;;;;;;22.25;16.40;;;2.80;99.90;;;;;;6116879;23;20301;-82
2022/12/09 10:39:15;;;;;;;17.63;15.73;;;2.90;99.90;;;;;;6107131;23;20429;-82
2022/12/09 10:44:30;;;;;;;15.27;12.77;;;3.00;99.90;;;;;;6092717;23;20576;-81
2022/12/09 10:46:59;;;;;;;16.27;14.55;;;3.00;99.90;;;;;;6072697;23;20224;-81
2022/12/09 10:49:29;;;;;;;15.48;13.77;;;2.80;99.90;;;;;;6116162;23;20273;-82
2022/12/09 10:51:59;;;;;;;18.98;14.85;;;2.60;99.90;;;;;;6103485;23;20195;-82
2022/12/09 10:54:34;;;;;;;17.52;14.48;;;2.50;99.90;;;;;;6114402;23;20238;-81
2022/12/09 10:57:21;;;;;;;18.80;14.88;;;2.60;99.90;;;;;;6117117;23;20286;-81
2022/12/09 10:59:58;;;;;;;21.60;17.48;;;2.60;99.90;;;;;;6113264;23;20200;-81
2022/12/09 11:02:27;;;;;;;22.50;18.10;;;2.70;99.90;;;;;;6104653;23;20194;-82
2022/12/09 11:04:55;;;;;;;20.95;17.38;;;2.80;99.90;;;;;;6114981;23;20225;-82
2022/12/09 11:07:26;;;;;;;23.50;17.25;;;2.90;99.90;;;;;;6091954;23;20215;-81
2022/12/09 11:10:07;;;;;;;15.13;13.52;;;3.00;99.90;;;;;;6118706;23;20263;-81
2022/12/09 11:12:38;;;;;;;17.98;15.35;;;3.00;99.90;;;;;;6115419;23;20269;-81
2022/12/09 11:15:23;;;;;;;23.90;18.80;;;2.90;99.90;;;;;;6109637;23;20235;-81
2022/12/09 11:17:56;;;;;;;19.10;15.80;;;3.00;99.90;;;;;;6116083;23;20213;-81
2022/12/09 11:20:27;;;;;;;17.10;15.27;;;3.00;99.90;;;;;;6116624;23;20559;-82
2022/12/09 11:23:05;;;;;;;21.55;17.33;;;3.10;99.90;;;;;;6063164;23;20208;-81
2022/12/09 11:25:35;;;;;;;16.85;13.65;;;3.10;99.90;;;;;;6089189;23;20191;-81
2022/12/09 11:28:04;;;;;;;14.75;13.15;;;3.10;99.90;;;;;;6120023;23;20562;-81
2022/12/09 11:30:37;;;;;;;15.65;13.98;;;3.10;99.90;;;;;;6115011;23;20194;-81
2022/12/09 11:33:22;;;;;;;17.45;14.15;;;3.10;99.90;;;;;;6101250;23;20706;-82
2022/12/09 11:36:03;;;;;;;19.75;17.30;;;3.20;99.90;;;;;;6106436;23;20212;-82
2022/12/09 11:38:38;;;;;;;16.10;13.70;;;3.30;99.90;;;;;;6096001;23;20260;-81
2022/12/09 11:42:12;;;;;;;16.75;15.15;;;3.40;99.90;;;;;;6090491;23;20194;-81
2022/12/09 11:44:04;;;;;;;18.67;15.43;;;3.40;99.90;;;;;;6096119;23;20198;-81
2022/12/09 11:46:32;;;;;;;20.73;18.73;;;3.50;99.90;;;;;;6109891;23;20497;-81
2022/12/09 11:49:03;;;;;;;18.73;16.58;;;3.50;99.90;;;;;;6112637;23;20526;-81
2022/12/09 11:51:33;;;;;;;20.13;18.33;;;3.60;99.90;;;;;;6112820;23;20188;-81
2022/12/09 11:54:06;;;;;;;16.95;15.15;;;3.70;99.90;;;;;;6115416;23;20272;-81
2022/12/09 11:56:36;;;;;;;18.40;16.55;;;3.60;99.90;;;;;;6112522;23;20310;-81
2022/12/09 11:59:09;;;;;;;17.50;15.80;;;3.70;99.90;;;;;;6100270;23;20255;-81
2022/12/09 12:01:46;;;;;;;17.60;14.63;;;3.70;99.90;;;;;;6117498;23;20229;-81
2022/12/09 12:04:16;;;;;;;18.33;15.02;;;3.70;99.90;;;;;;6109753;23;20198;-81
2022/12/09 12:06:47;;;;;;;16.13;14.45;;;3.80;99.90;;;;;;6107403;23;20194;-81
2022/12/09 12:09:22;;;;;;;26.33;21.48;;;3.80;99.90;;;;;;6094871;23;20199;-81
2022/12/09 12:11:58;;;;;;;18.40;15.02;;;3.80;99.90;;;;;;6108339;23;20276;-81
2022/12/09 12:14:28;;;;;;;15.20;13.60;;;3.80;99.90;;;;;;6110411;23;20226;-81
2022/12/09 12:17:04;;;;;;;15.35;13.85;;;3.80;99.90;;;;;;6103701;23;20218;-81
2022/12/09 12:19:35;;;;;;;15.68;14.18;;;3.80;99.90;;;;;;6089989;23;20214;-81
2022/12/09 12:22:19;;;;;;;15.85;14.07;;;3.80;99.90;;;;;;6101408;23;20241;-81
2022/12/09 12:25:08;;;;;;;17.70;15.80;;;3.80;99.90;;;;;;6111067;23;20245;-81
2022/12/09 12:27:46;;;;;;;16.70;14.80;;;3.80;99.90;;;;;;6096849;23;20192;-81
2022/12/09 12:30:16;;;;;;;14.80;13.40;;;3.80;99.90;;;;;;6108182;23;20325;-81
2022/12/09 12:33:04;;;;;;;15.88;14.00;;;3.70;99.90;;;;;;6108304;23;20257;-81
2022/12/09 12:35:52;;;;;;;17.05;14.98;;;3.70;99.90;;;;;;6071212;23;20242;-81
2022/12/09 12:38:26;;;;;;;15.55;13.90;;;3.70;99.90;;;;;;6114897;23;20277;-81
2022/12/09 12:41:10;;;;;;;17.80;15.00;;;3.70;99.90;;;;;;6075192;23;20192;-81
2022/12/09 12:46:51;;;;;;;16.70;15.00;;;3.70;99.90;;;;;;6122377;23;20194;-80
2022/12/09 12:49:42;;;;;;;18.05;16.25;;;3.70;99.90;;;;;;6106820;23;20269;-81
2022/12/09 12:52:23;;;;;;;16.33;14.73;;;3.70;99.90;;;;;;6116875;23;20198;-80
2022/12/09 12:54:58;;;;;;;18.30;15.15;;;3.70;99.90;;;;;;6117736;23;20267;-81